Time;durP1;ratioP1;P1;durP2;ratioP2;P2;SDS_P1;SDS_P2;PMS_P1;PMS_P2;Temp;Humidity;BMP_temperature;BMP_pressure;BME280_temperature;BME280_humidity;BME280_pressure;Samples;Min_cycle;Max_cycle;Signal;HPM_P1;HPM_P2
2022/01/16 00:05:05;;;;;;;169.27;60.40;;;;;;;;;;6252234;23;20184;-87
2022/01/16 00:07:34;;;;;;;151.60;60.13;;;;;;;;;;6252413;23;20168;-87
2022/01/16 00:10:02;;;;;;;156.87;64.37;;;;;;;;;;6252631;23;20172;-87
2022/01/16 00:12:31;;;;;;;128.30;48.73;;;;;;;;;;6252272;23;20227;-87
2022/01/16 00:14:59;;;;;;;169.10;72.03;;;;;;;;;;6252036;23;20181;-87
2022/01/16 00:17:33;;;;;;;160.43;63.80;;;;;;;;;;6253021;23;20181;-87
2022/01/16 00:20:02;;;;;;;118.77;49.60;;;;;;;;;;6240459;23;20197;-87
2022/01/16 00:22:37;;;;;;;163.63;59.33;;;;;;;;;;6251968;23;20178;-87
2022/01/16 00:25:05;;;;;;;79.27;34.60;;;;;;;;;;6251772;23;20200;-87
2022/01/16 00:27:34;;;;;;;143.30;56.63;;;;;;;;;;6251956;23;20178;-87
2022/01/16 00:30:02;;;;;;;151.93;68.40;;;;;;;;;;6251617;23;20173;-87
2022/01/16 00:32:30;;;;;;;138.03;57.30;;;;;;;;;;6251820;23;20178;-87
2022/01/16 00:34:59;;;;;;;131.87;56.60;;;;;;;;;;6251723;23;20174;-87
2022/01/16 00:37:28;;;;;;;128.83;54.23;;;;;;;;;;6251966;23;20173;-87
2022/01/16 00:39:58;;;;;;;85.03;37.43;;;;;;;;;;6252263;23;20177;-87
2022/01/16 00:42:26;;;;;;;91.67;44.70;;;;;;;;;;6251629;23;20174;-87
2022/01/16 00:44:55;;;;;;;104.03;39.13;;;;;;;;;;6252444;23;20170;-87
2022/01/16 00:47:23;;;;;;;113.63;48.53;;;;;;;;;;6251520;23;20178;-87
2022/01/16 00:49:51;;;;;;;68.30;29.07;;;;;;;;;;6251555;23;20174;-87
2022/01/16 00:52:20;;;;;;;97.87;41.83;;;;;;;;;;6251497;23;20194;-87
2022/01/16 00:54:48;;;;;;;87.03;39.73;;;;;;;;;;6250714;23;20257;-87
2022/01/16 00:57:19;;;;;;;82.13;35.83;;;;;;;;;;6251728;23;20272;-87
2022/01/16 00:59:48;;;;;;;113.27;53.37;;;;;;;;;;6251154;23;20162;-87
2022/01/16 01:02:17;;;;;;;113.40;59.93;;;;;;;;;;6251602;22;20196;-87
2022/01/16 01:04:47;;;;;;;117.70;51.70;;;;;;;;;;6225245;23;20173;-87
2022/01/16 01:07:16;;;;;;;8.20;7.17;;;;;;;;;;6252455;23;20166;-87
2022/01/16 01:09:44;;;;;;;60.57;27.63;;;;;;;;;;6251196;23;20174;-87
2022/01/16 01:12:24;;;;;;;82.80;35.10;;;;;;;;;;6251539;23;20190;-87
2022/01/16 01:15:06;;;;;;;51.30;23.50;;;;;;;;;;6251329;23;20177;-87
2022/01/16 01:17:42;;;;;;;20.53;9.80;;;;;;;;;;6252018;23;20166;-87
2022/01/16 01:20:12;;;;;;;94.93;48.53;;;;;;;;;;6254361;23;20172;-87
2022/01/16 01:22:40;;;;;;;78.73;35.27;;;;;;;;;;6251317;23;20169;-87
2022/01/16 01:25:11;;;;;;;67.07;31.07;;;;;;;;;;6250987;23;20173;-87
2022/01/16 01:27:41;;;;;;;93.93;46.37;;;;;;;;;;6251592;23;20190;-87
2022/01/16 01:30:12;;;;;;;88.37;44.40;;;;;;;;;;6251223;23;20162;-87
2022/01/16 01:32:40;;;;;;;83.07;41.07;;;;;;;;;;6251254;23;20194;-87
2022/01/16 01:35:10;;;;;;;61.37;31.03;;;;;;;;;;6251382;23;20208;-87
2022/01/16 01:37:38;;;;;;;50.33;25.70;;;;;;;;;;6251594;23;20201;-87
2022/01/16 01:40:09;;;;;;;70.03;30.07;;;;;;;;;;6251580;23;20174;-87
2022/01/16 01:42:44;;;;;;;10.97;8.27;;;;;;;;;;6251548;23;20189;-87
2022/01/16 01:51:08;;;;;;;89.67;41.37;;;;;;;;;;6250868;23;20205;-87
2022/01/16 01:53:36;;;;;;;78.30;37.83;;;;;;;;;;6251270;23;20224;-87
2022/01/16 01:56:05;;;;;;;108.00;51.23;;;;;;;;;;6250914;23;20174;-87
2022/01/16 01:58:34;;;;;;;30.30;17.03;;;;;;;;;;6250766;23;20180;-87
2022/01/16 02:01:04;;;;;;;68.57;36.63;;;;;;;;;;6250768;23;20185;-87
2022/01/16 02:03:42;;;;;;;14.33;9.00;;;;;;;;;;6250727;22;20196;-87
2022/01/16 02:06:13;;;;;;;7.00;6.50;;;;;;;;;;6250437;23;20193;-87
2022/01/16 02:08:43;;;;;;;14.20;12.63;;;;;;;;;;6251410;23;20181;-87
2022/01/16 02:11:12;;;;;;;24.33;13.33;;;;;;;;;;6250233;23;20216;-87
2022/01/16 02:13:50;;;;;;;20.60;14.00;;;;;;;;;;6250338;23;20173;-87
2022/01/16 02:34:28;;;;;;;11.43;8.53;;;;;;;;;;6250187;23;20189;-87
2022/01/16 02:36:18;;;;;;;16.73;11.10;;;;;;;;;;6240359;23;20174;-87
2022/01/16 02:38:48;;;;;;;17.40;11.33;;;;;;;;;;6250509;23;20161;-87
2022/01/16 02:41:18;;;;;;;13.93;10.13;;;;;;;;;;6250360;23;20173;-87
2022/01/16 02:43:49;;;;;;;12.23;9.17;;;;;;;;;;6250613;23;20185;-87
2022/01/16 02:46:36;;;;;;;13.07;10.67;;;;;;;;;;6249846;23;20193;-87
2022/01/16 02:49:05;;;;;;;13.10;11.00;;;;;;;;;;6250678;23;20169;-87
2022/01/16 02:51:33;;;;;;;3.47;3.17;;;;;;;;;;6249975;23;20209;-87
2022/01/16 02:54:02;;;;;;;9.00;6.13;;;;;;;;;;6250920;23;20200;-87
2022/01/16 02:56:35;;;;;;;11.50;8.03;;;;;;;;;;6250777;23;20179;-87
2022/01/16 02:59:03;;;;;;;7.53;5.67;;;;;;;;;;6250865;23;20189;-87
2022/01/16 03:01:31;;;;;;;10.50;7.13;;;;;;;;;;6251025;23;20219;-87
2022/01/16 03:04:00;;;;;;;10.80;7.23;;;;;;;;;;6251016;22;20613;-87
2022/01/16 03:06:28;;;;;;;11.60;7.50;;;;;;;;;;6250627;23;20173;-87
2022/01/16 03:08:57;;;;;;;17.10;11.03;;;;;;;;;;6250508;23;20174;-87
2022/01/16 03:11:34;;;;;;;9.27;7.30;;;;;;;;;;6250489;23;20174;-87
2022/01/16 03:14:04;;;;;;;8.80;6.50;;;;;;;;;;6239335;23;20236;-88
2022/01/16 03:16:33;;;;;;;13.03;8.03;;;;;;;;;;6251682;23;20174;-87
2022/01/16 03:21:54;;;;;;;17.90;12.00;;;;;;;;;;6251059;23;20170;-87
2022/01/16 03:24:25;;;;;;;12.00;8.07;;;;;;;;;;6250603;23;20176;-87
2022/01/16 03:26:54;;;;;;;8.93;7.10;;;;;;;;;;6250904;23;20184;-87
2022/01/16 03:29:23;;;;;;;9.63;8.03;;;;;;;;;;6251022;23;20517;-87
2022/01/16 03:31:52;;;;;;;16.13;9.70;;;;;;;;;;6250581;23;20193;-87
2022/01/16 03:34:20;;;;;;;8.90;6.97;;;;;;;;;;6251041;23;20188;-87
2022/01/16 03:36:49;;;;;;;9.63;5.93;;;;;;;;;;6250640;23;20175;-87
2022/01/16 03:39:17;;;;;;;15.93;10.47;;;;;;;;;;6249917;23;20174;-87
2022/01/16 03:41:46;;;;;;;7.93;6.80;;;;;;;;;;6250765;23;20181;-87
2022/01/16 03:44:14;;;;;;;16.40;13.40;;;;;;;;;;6250695;23;20198;-87
2022/01/16 03:46:45;;;;;;;16.67;12.47;;;;;;;;;;6250682;23;20251;-87
2022/01/16 03:49:15;;;;;;;6.57;3.40;;;;;;;;;;6250953;23;20167;-88
2022/01/16 03:51:44;;;;;;;13.47;9.73;;;;;;;;;;6249531;23;20240;-87
2022/01/16 03:54:14;;;;;;;9.07;5.90;;;;;;;;;;6251030;23;20175;-86
2022/01/16 03:56:43;;;;;;;13.63;10.80;;;;;;;;;;6251081;23;20173;-87
2022/01/16 03:59:11;;;;;;;11.00;8.13;;;;;;;;;;6250831;23;20226;-87
2022/01/16 04:01:40;;;;;;;8.63;5.90;;;;;;;;;;6251161;23;20174;-87
2022/01/16 04:04:10;;;;;;;11.60;7.17;;;;;;;;;;6250343;22;20191;-87
2022/01/16 04:06:39;;;;;;;9.50;7.07;;;;;;;;;;6251322;23;20175;-87
2022/01/16 04:09:07;;;;;;;19.23;14.77;;;;;;;;;;6250373;23;20181;-87
2022/01/16 04:11:42;;;;;;;20.37;11.93;;;;;;;;;;6250033;23;20174;-87
2022/01/16 04:14:16;;;;;;;8.43;6.07;;;;;;;;;;6250593;23;20243;-87
2022/01/16 04:16:44;;;;;;;29.17;9.07;;;;;;;;;;6250883;23;20167;-87
2022/01/16 04:19:14;;;;;;;9.83;7.60;;;;;;;;;;6250042;23;20180;-87
2022/01/16 04:21:42;;;;;;;10.30;6.00;;;;;;;;;;6250471;23;20174;-87
2022/01/16 04:24:11;;;;;;;3.27;2.97;;;;;;;;;;6252172;22;20170;-87
2022/01/16 04:26:39;;;;;;;13.97;8.23;;;;;;;;;;6251845;23;20174;-87
2022/01/16 04:29:08;;;;;;;8.17;6.67;;;;;;;;;;6251828;23;20239;-87
2022/01/16 04:31:37;;;;;;;5.40;3.57;;;;;;;;;;6252191;23;20174;-87
2022/01/16 04:34:05;;;;;;;16.73;12.70;;;;;;;;;;6251922;23;20202;-87
2022/01/16 04:36:36;;;;;;;16.63;11.30;;;;;;;;;;6252159;23;20196;-88
2022/01/16 04:39:09;;;;;;;15.53;10.37;;;;;;;;;;6251699;23;20174;-87
2022/01/16 04:44:24;;;;;;;12.10;6.57;;;;;;;;;;6251820;23;20157;-87
2022/01/16 04:46:53;;;;;;;20.07;12.40;;;;;;;;;;6251548;23;20177;-87
2022/01/16 04:49:22;;;;;;;21.90;14.43;;;;;;;;;;6251431;23;20174;-87
2022/01/16 04:51:52;;;;;;;18.87;11.40;;;;;;;;;;6251733;23;20206;-87
2022/01/16 04:54:20;;;;;;;16.63;10.57;;;;;;;;;;6252382;23;20213;-87
2022/01/16 04:56:48;;;;;;;9.80;7.93;;;;;;;;;;6251628;23;20197;-87
2022/01/16 04:59:17;;;;;;;15.57;11.13;;;;;;;;;;6251641;23;20174;-87
2022/01/16 05:01:46;;;;;;;11.53;8.17;;;;;;;;;;6251155;23;20178;-87
2022/01/16 05:04:15;;;;;;;16.47;10.63;;;;;;;;;;6251401;22;20190;-87
2022/01/16 05:06:43;;;;;;;12.53;9.17;;;;;;;;;;6252233;23;20179;-85
2022/01/16 05:09:13;;;;;;;6.60;5.73;;;;;;;;;;6251910;23;20192;-85
2022/01/16 05:11:41;;;;;;;4.70;4.03;;;;;;;;;;6251749;23;20180;-85
2022/01/16 05:16:56;;;;;;;12.67;8.27;;;;;;;;;;6251971;23;20239;-85
2022/01/16 05:19:24;;;;;;;12.40;5.93;;;;;;;;;;6251267;23;20175;-85
2022/01/16 05:21:53;;;;;;;13.43;8.43;;;;;;;;;;6251593;23;20247;-86
2022/01/16 05:24:28;;;;;;;7.83;5.40;;;;;;;;;;6251907;23;20171;-86
2022/01/16 05:26:56;;;;;;;7.00;5.50;;;;;;;;;;6251768;23;20167;-86
2022/01/16 05:29:25;;;;;;;5.67;4.60;;;;;;;;;;6250975;23;20204;-86
2022/01/16 05:31:53;;;;;;;21.50;10.30;;;;;;;;;;6251254;23;20206;-86
2022/01/16 05:34:25;;;;;;;8.03;4.67;;;;;;;;;;6250547;23;20204;-86
2022/01/16 05:36:54;;;;;;;10.70;6.30;;;;;;;;;;6250877;23;20165;-86
2022/01/16 05:39:24;;;;;;;13.33;8.23;;;;;;;;;;6251290;23;20171;-86
2022/01/16 05:41:52;;;;;;;13.07;9.50;;;;;;;;;;6250977;23;20207;-86
2022/01/16 05:44:21;;;;;;;9.70;6.33;;;;;;;;;;6251668;23;20197;-86
2022/01/16 05:46:49;;;;;;;8.73;7.10;;;;;;;;;;6250920;23;20205;-86
2022/01/16 05:49:18;;;;;;;6.33;5.30;;;;;;;;;;6251349;23;20185;-87
2022/01/16 05:51:46;;;;;;;12.27;5.80;;;;;;;;;;6250480;23;20211;-86
2022/01/16 05:54:15;;;;;;;11.73;7.10;;;;;;;;;;6250841;23;20199;-86
2022/01/16 05:56:44;;;;;;;10.63;6.07;;;;;;;;;;6250631;23;20181;-86
2022/01/16 05:59:13;;;;;;;21.23;8.50;;;;;;;;;;6250339;23;20185;-86
2022/01/16 06:01:41;;;;;;;10.40;7.13;;;;;;;;;;6250563;23;20181;-86
2022/01/16 06:04:10;;;;;;;10.57;4.07;;;;;;;;;;6251159;22;20191;-85
2022/01/16 06:06:38;;;;;;;11.60;5.20;;;;;;;;;;6250072;23;20178;-86
2022/01/16 06:09:06;;;;;;;3.97;2.43;;;;;;;;;;6250898;23;20212;-86
2022/01/16 06:11:35;;;;;;;2.87;2.53;;;;;;;;;;6251861;23;20207;-86
2022/01/16 06:14:05;;;;;;;11.83;4.90;;;;;;;;;;6251086;23;20194;-86
2022/01/16 06:16:35;;;;;;;6.33;3.00;;;;;;;;;;6251233;23;20183;-86
2022/01/16 06:19:03;;;;;;;1.63;1.53;;;;;;;;;;6252039;23;20216;-86
2022/01/16 06:21:32;;;;;;;8.93;5.90;;;;;;;;;;6251389;23;20233;-86
2022/01/16 06:24:00;;;;;;;2.80;1.80;;;;;;;;;;6250389;23;20170;-86
2022/01/16 06:26:29;;;;;;;9.07;4.53;;;;;;;;;;6250151;23;20182;-86
2022/01/16 06:28:57;;;;;;;3.30;3.00;;;;;;;;;;6249971;23;20177;-86
2022/01/16 06:31:27;;;;;;;5.87;3.33;;;;;;;;;;6250361;23;20191;-86
2022/01/16 06:33:58;;;;;;;5.83;3.40;;;;;;;;;;6250629;23;20200;-86
2022/01/16 06:36:27;;;;;;;1.77;1.67;;;;;;;;;;6250752;23;20228;-86
2022/01/16 06:38:56;;;;;;;2.37;1.57;;;;;;;;;;6251093;23;20182;-86
2022/01/16 06:41:25;;;;;;;3.87;3.00;;;;;;;;;;6251166;23;20182;-86
2022/01/16 06:43:53;;;;;;;3.13;2.67;;;;;;;;;;6250626;23;20173;-87
2022/01/16 06:46:22;;;;;;;13.57;2.03;;;;;;;;;;6250338;23;20175;-87
2022/01/16 06:48:52;;;;;;;6.33;3.57;;;;;;;;;;6250852;23;20177;-87
2022/01/16 06:51:21;;;;;;;4.80;2.37;;;;;;;;;;6251036;23;20213;-87
2022/01/16 06:53:50;;;;;;;3.00;2.37;;;;;;;;;;6251074;23;20217;-87
2022/01/16 06:56:18;;;;;;;9.17;3.20;;;;;;;;;;6250845;23;20190;-86
2022/01/16 06:58:47;;;;;;;2.87;2.07;;;;;;;;;;6250554;23;20178;-87
2022/01/16 07:01:15;;;;;;;4.37;2.53;;;;;;;;;;6250904;23;20237;-87
2022/01/16 07:03:44;;;;;;;4.10;2.50;;;;;;;;;;6250295;22;20193;-87
2022/01/16 07:06:13;;;;;;;6.40;2.57;;;;;;;;;;6251618;23;20179;-87
2022/01/16 07:08:42;;;;;;;7.13;4.27;;;;;;;;;;6250342;23;20174;-87
2022/01/16 07:11:11;;;;;;;10.17;4.40;;;;;;;;;;6251494;23;20175;-86
2022/01/16 07:13:39;;;;;;;8.20;4.20;;;;;;;;;;6250990;23;20174;-87
2022/01/16 07:16:07;;;;;;;4.63;4.13;;;;;;;;;;6251322;23;20177;-87
2022/01/16 07:18:36;;;;;;;4.67;3.03;;;;;;;;;;6250798;23;20174;-86
2022/01/16 07:21:05;;;;;;;6.43;4.00;;;;;;;;;;6250260;23;20204;-87
2022/01/16 07:23:35;;;;;;;9.33;4.40;;;;;;;;;;6250937;23;20197;-87
2022/01/16 07:26:04;;;;;;;3.70;2.50;;;;;;;;;;6250730;23;20227;-86
2022/01/16 07:28:32;;;;;;;4.50;3.13;;;;;;;;;;6250967;23;20173;-86
2022/01/16 07:31:02;;;;;;;6.20;3.80;;;;;;;;;;6250262;23;20171;-87
2022/01/16 07:33:31;;;;;;;5.97;3.40;;;;;;;;;;6250945;23;20237;-86
2022/01/16 07:35:59;;;;;;;3.57;3.00;;;;;;;;;;6237792;23;20273;-86
2022/01/16 07:38:28;;;;;;;11.00;4.07;;;;;;;;;;6250326;23;20174;-86
2022/01/16 07:40:58;;;;;;;10.40;4.27;;;;;;;;;;6250780;23;20174;-86
2022/01/16 07:43:26;;;;;;;2.80;1.73;;;;;;;;;;6250924;23;20169;-87
2022/01/16 07:45:55;;;;;;;6.10;3.80;;;;;;;;;;6251457;23;20220;-86
2022/01/16 07:48:23;;;;;;;10.10;4.43;;;;;;;;;;6250596;23;20197;-86
2022/01/16 07:50:52;;;;;;;6.37;4.07;;;;;;;;;;6250733;23;20205;-86
2022/01/16 07:53:20;;;;;;;3.80;2.73;;;;;;;;;;6250591;23;20180;-86
2022/01/16 07:55:49;;;;;;;3.33;2.67;;;;;;;;;;6250615;23;20202;-86
2022/01/16 07:58:19;;;;;;;8.77;4.50;;;;;;;;;;6250678;23;20241;-86
2022/01/16 08:00:47;;;;;;;6.97;4.13;;;;;;;;;;6252546;23;20179;-86
2022/01/16 08:03:16;;;;;;;6.07;3.03;;;;;;;;;;6252912;22;20205;-86
2022/01/16 08:05:45;;;;;;;15.20;5.97;;;;;;;;;;6252976;23;20283;-86
2022/01/16 08:08:13;;;;;;;10.13;5.20;;;;;;;;;;6253044;23;20178;-86
2022/01/16 08:10:42;;;;;;;8.93;6.77;;;;;;;;;;6252553;23;20239;-86
2022/01/16 08:13:10;;;;;;;6.97;4.97;;;;;;;;;;6253375;23;20175;-86
2022/01/16 08:15:40;;;;;;;10.07;5.33;;;;;;;;;;6253102;23;20197;-86
2022/01/16 08:18:09;;;;;;;5.77;3.37;;;;;;;;;;6253322;23;20194;-86
2022/01/16 08:20:37;;;;;;;10.63;6.63;;;;;;;;;;6252854;23;20174;-86
2022/01/16 08:23:05;;;;;;;10.07;5.00;;;;;;;;;;6253581;23;20176;-86
2022/01/16 08:25:34;;;;;;;10.17;6.87;;;;;;;;;;6253626;23;20201;-86
2022/01/16 08:28:02;;;;;;;10.33;5.00;;;;;;;;;;6253271;23;20285;-86
2022/01/16 08:30:31;;;;;;;9.90;5.97;;;;;;;;;;6252678;23;20173;-86
2022/01/16 08:33:01;;;;;;;5.20;2.53;;;;;;;;;;6240511;23;20175;-86
2022/01/16 08:35:29;;;;;;;11.20;4.63;;;;;;;;;;6252336;23;20247;-86
2022/01/16 08:37:58;;;;;;;16.83;7.83;;;;;;;;;;6252668;23;20188;-86
2022/01/16 08:40:26;;;;;;;8.67;5.83;;;;;;;;;;6252229;23;20180;-86
2022/01/16 08:42:54;;;;;;;4.47;3.80;;;;;;;;;;6252228;23;20175;-86
2022/01/16 08:45:23;;;;;;;11.13;5.93;;;;;;;;;;6252629;23;20190;-86
2022/01/16 08:47:51;;;;;;;12.67;7.63;;;;;;;;;;6252575;23;20239;-86
2022/01/16 08:50:21;;;;;;;4.90;3.40;;;;;;;;;;6251723;23;20179;-86
2022/01/16 08:52:50;;;;;;;11.60;5.50;;;;;;;;;;6252937;23;20201;-87
2022/01/16 08:55:18;;;;;;;10.90;5.97;;;;;;;;;;6253076;23;20202;-86
2022/01/16 08:57:47;;;;;;;17.03;4.80;;;;;;;;;;6252573;23;20181;-86
2022/01/16 09:00:16;;;;;;;4.17;3.50;;;;;;;;;;6252429;23;20227;-86
2022/01/16 09:02:44;;;;;;;8.80;5.73;;;;;;;;;;6251895;22;20193;-86
2022/01/16 09:05:13;;;;;;;7.87;4.73;;;;;;;;;;6251530;23;20171;-86
2022/01/16 09:07:43;;;;;;;10.70;5.90;;;;;;;;;;6252245;23;20204;-86
2022/01/16 09:10:12;;;;;;;5.10;4.23;;;;;;;;;;6252673;23;20174;-87
2022/01/16 09:12:40;;;;;;;6.90;2.90;;;;;;;;;;6252754;23;20179;-86
2022/01/16 09:15:10;;;;;;;11.80;6.20;;;;;;;;;;6252893;23;20199;-86
2022/01/16 09:17:38;;;;;;;8.37;3.50;;;;;;;;;;6252538;23;20180;-86
2022/01/16 09:20:07;;;;;;;4.43;2.40;;;;;;;;;;6253091;23;20238;-86
2022/01/16 09:22:39;;;;;;;8.50;4.83;;;;;;;;;;6252027;23;20175;-86
2022/01/16 09:25:10;;;;;;;4.83;3.97;;;;;;;;;;6252586;23;20160;-86
2022/01/16 09:27:39;;;;;;;10.70;7.83;;;;;;;;;;6251921;23;20234;-86
2022/01/16 09:30:08;;;;;;;14.83;6.23;;;;;;;;;;6252929;23;20175;-86
2022/01/16 09:32:37;;;;;;;3.83;3.37;;;;;;;;;;6252003;23;20176;-87
2022/01/16 09:35:07;;;;;;;8.27;4.03;;;;;;;;;;6251972;23;20194;-86
2022/01/16 09:37:35;;;;;;;5.90;4.13;;;;;;;;;;6253454;23;20173;-86
2022/01/16 09:40:04;;;;;;;6.63;4.70;;;;;;;;;;6250505;23;20174;-86
2022/01/16 09:42:34;;;;;;;6.27;4.27;;;;;;;;;;6252064;23;20179;-86
2022/01/16 09:45:03;;;;;;;6.53;3.80;;;;;;;;;;6251878;23;20229;-86
2022/01/16 09:47:31;;;;;;;14.87;8.17;;;;;;;;;;6251759;23;20201;-87
2022/01/16 09:50:00;;;;;;;6.90;4.13;;;;;;;;;;6239637;23;20175;-86
2022/01/16 09:52:28;;;;;;;17.17;6.43;;;;;;;;;;6252558;23;20215;-86
2022/01/16 09:54:57;;;;;;;9.73;5.13;;;;;;;;;;6251780;23;20190;-86
2022/01/16 09:57:25;;;;;;;7.87;4.77;;;;;;;;;;6252250;23;20182;-86
2022/01/16 09:59:55;;;;;;;8.47;3.20;;;;;;;;;;6252190;23;20174;-86
2022/01/16 10:02:24;;;;;;;10.17;5.27;;;;;;;;;;6251263;22;20175;-86
2022/01/16 10:04:53;;;;;;;6.70;4.77;;;;;;;;;;6252112;23;20218;-86
2022/01/16 10:07:21;;;;;;;2.70;2.23;;;;;;;;;;6251631;23;20197;-86
2022/01/16 10:10:06;;;;;;;3.73;3.07;;;;;;;;;;6252519;23;20176;-86
2022/01/16 10:12:34;;;;;;;11.33;3.37;;;;;;;;;;6252944;23;20193;-86
2022/01/16 10:15:18;;;;;;;6.77;2.37;;;;;;;;;;6252841;23;20181;-86
2022/01/16 10:17:47;;;;;;;10.00;5.57;;;;;;;;;;6252137;23;20160;-86
2022/01/16 10:20:16;;;;;;;9.67;5.23;;;;;;;;;;6252122;23;20217;-86
2022/01/16 10:22:51;;;;;;;5.70;3.00;;;;;;;;;;6251637;23;20200;-86
2022/01/16 10:25:36;;;;;;;6.27;3.97;;;;;;;;;;6251624;23;20186;-86
2022/01/16 10:28:06;;;;;;;9.93;5.33;;;;;;;;;;6251494;23;20171;-86
2022/01/16 10:30:41;;;;;;;5.43;3.23;;;;;;;;;;6254830;23;20182;-86
2022/01/16 10:33:13;;;;;;;9.03;3.63;;;;;;;;;;6257736;23;20178;-86
2022/01/16 10:35:42;;;;;;;5.67;3.00;;;;;;;;;;6249330;23;20198;-85
2022/01/16 10:38:11;;;;;;;4.20;3.33;;;;;;;;;;6248304;23;20206;-86
2022/01/16 10:40:41;;;;;;;6.37;3.60;;;;;;;;;;6247216;23;20185;-88
2022/01/16 10:43:15;;;;;;;6.80;4.10;;;;;;;;;;6248175;23;20181;-85
2022/01/16 10:45:45;;;;;;;3.07;2.57;;;;;;;;;;6246770;23;20172;-86
2022/01/16 10:48:15;;;;;;;2.40;1.47;;;;;;;;;;6251010;23;20176;-87
2022/01/16 10:50:44;;;;;;;4.07;2.87;;;;;;;;;;6247535;23;20199;-87
2022/01/16 10:53:13;;;;;;;3.03;2.63;;;;;;;;;;6247185;23;20170;-87
2022/01/16 10:55:44;;;;;;;5.07;3.50;;;;;;;;;;6247239;23;20202;-87
2022/01/16 10:58:13;;;;;;;5.83;4.77;;;;;;;;;;6247060;23;20273;-86
2022/01/16 11:00:43;;;;;;;4.53;2.90;;;;;;;;;;6247366;23;20225;-86
2022/01/16 11:03:14;;;;;;;3.83;2.90;;;;;;;;;;6246899;22;20218;-86
2022/01/16 11:05:44;;;;;;;6.37;3.60;;;;;;;;;;6246367;23;20178;-86
2022/01/16 11:08:14;;;;;;;7.53;3.93;;;;;;;;;;6246857;23;20165;-86
2022/01/16 11:10:43;;;;;;;4.93;4.00;;;;;;;;;;6246974;23;20202;-86
2022/01/16 11:13:12;;;;;;;2.97;2.77;;;;;;;;;;6247812;23;20229;-87
2022/01/16 11:15:42;;;;;;;8.20;3.10;;;;;;;;;;6248838;23;20176;-87
2022/01/16 11:18:12;;;;;;;5.23;3.63;;;;;;;;;;6247951;23;20190;-86
2022/01/16 11:20:45;;;;;;;2.50;1.90;;;;;;;;;;6247481;23;20180;-87
2022/01/16 11:23:16;;;;;;;6.40;3.53;;;;;;;;;;6248826;23;20207;-89
2022/01/16 11:25:46;;;;;;;4.63;3.27;;;;;;;;;;6248891;23;20167;-87
2022/01/16 11:28:15;;;;;;;2.70;2.47;;;;;;;;;;6248656;23;20175;-87
2022/01/16 11:30:48;;;;;;;4.20;2.50;;;;;;;;;;6247444;23;20211;-87
2022/01/16 11:33:22;;;;;;;7.10;4.33;;;;;;;;;;6247744;23;20224;-86
2022/01/16 11:35:54;;;;;;;3.93;3.33;;;;;;;;;;6248459;23;20180;-85
2022/01/16 11:38:23;;;;;;;5.30;3.00;;;;;;;;;;6250180;23;20183;-86
2022/01/16 11:40:51;;;;;;;5.13;4.63;;;;;;;;;;6247407;23;20175;-85
2022/01/16 11:43:23;;;;;;;3.63;1.90;;;;;;;;;;6248283;23;20188;-87
2022/01/16 11:45:52;;;;;;;5.90;2.70;;;;;;;;;;6249364;23;20167;-85
2022/01/16 11:48:34;;;;;;;4.93;3.70;;;;;;;;;;6248566;23;20199;-87
2022/01/16 11:51:43;;;;;;;3.03;2.73;;;;;;;;;;6248514;23;20287;-86
2022/01/16 11:54:15;;;;;;;2.90;2.63;;;;;;;;;;6248219;23;20199;-85
2022/01/16 11:56:51;;;;;;;2.47;2.27;;;;;;;;;;6249088;23;20195;-85
2022/01/16 11:59:24;;;;;;;2.73;2.13;;;;;;;;;;6250202;23;20172;-88
2022/01/16 12:01:53;;;;;;;5.40;3.60;;;;;;;;;;6248995;23;20173;-86
2022/01/16 12:04:41;;;;;;;9.53;3.37;;;;;;;;;;6250568;22;20274;-86
2022/01/16 12:07:24;;;;;;;1.83;1.73;;;;;;;;;;6253375;23;20166;-86
2022/01/16 12:09:57;;;;;;;3.00;2.90;;;;;;;;;;6249678;23;20236;-90
2022/01/16 12:12:38;;;;;;;6.40;3.47;;;;;;;;;;6248709;23;20226;-89
2022/01/16 12:15:07;;;;;;;6.47;4.57;;;;;;;;;;6248418;23;20173;-89
2022/01/16 12:17:38;;;;;;;4.70;3.43;;;;;;;;;;6248864;23;20235;-87
2022/01/16 12:20:25;;;;;;;4.93;3.40;;;;;;;;;;6250671;23;20165;-88
2022/01/16 12:22:55;;;;;;;10.23;4.67;;;;;;;;;;6248953;23;20181;-88
2022/01/16 12:25:54;;;;;;;6.03;3.03;;;;;;;;;;6249672;23;20207;-87
2022/01/16 12:28:23;;;;;;;8.27;3.50;;;;;;;;;;6249647;23;20158;-86
2022/01/16 12:30:52;;;;;;;12.10;7.07;;;;;;;;;;6249773;23;20183;-88
2022/01/16 12:33:25;;;;;;;3.47;2.63;;;;;;;;;;6252793;23;20184;-90
2022/01/16 12:36:14;;;;;;;6.43;3.63;;;;;;;;;;6249593;23;20176;-90
2022/01/16 12:38:47;;;;;;;7.03;4.90;;;;;;;;;;6248534;23;20176;-84
2022/01/16 12:41:18;;;;;;;5.53;3.67;;;;;;;;;;6249049;23;20172;-91
2022/01/16 12:43:52;;;;;;;3.90;2.93;;;;;;;;;;6248197;23;20231;-91
2022/01/16 12:46:22;;;;;;;9.53;3.60;;;;;;;;;;6248131;23;20179;-91
2022/01/16 12:48:51;;;;;;;7.07;3.40;;;;;;;;;;6248261;23;20200;-90
2022/01/16 12:51:21;;;;;;;6.97;5.07;;;;;;;;;;6247954;23;20204;-90
2022/01/16 12:53:50;;;;;;;5.13;3.93;;;;;;;;;;6248216;23;20180;-90
2022/01/16 12:56:23;;;;;;;6.17;4.33;;;;;;;;;;6248241;23;20227;-90
2022/01/16 12:58:52;;;;;;;7.30;3.30;;;;;;;;;;6247882;23;20322;-91
2022/01/16 13:01:21;;;;;;;7.43;4.63;;;;;;;;;;6248032;23;20176;-91
2022/01/16 13:03:50;;;;;;;8.17;4.77;;;;;;;;;;6248193;22;20267;-91
2022/01/16 13:06:19;;;;;;;6.73;3.80;;;;;;;;;;6248096;23;20243;-91
2022/01/16 13:08:58;;;;;;;6.30;3.97;;;;;;;;;;6248371;23;20171;-90
2022/01/16 13:11:29;;;;;;;10.93;6.77;;;;;;;;;;6248225;23;20169;-90
2022/01/16 13:13:58;;;;;;;12.07;6.30;;;;;;;;;;6247706;23;20176;-91
2022/01/16 13:16:28;;;;;;;15.23;6.10;;;;;;;;;;6248013;23;20173;-90
2022/01/16 13:19:05;;;;;;;5.73;4.30;;;;;;;;;;6247955;23;20250;-91
2022/01/16 13:21:46;;;;;;;6.00;3.87;;;;;;;;;;6248236;23;20251;-90
2022/01/16 13:24:24;;;;;;;5.73;3.27;;;;;;;;;;6248009;23;20179;-90
2022/01/16 13:26:54;;;;;;;10.87;8.17;;;;;;;;;;6247964;23;20180;-90
2022/01/16 13:29:27;;;;;;;10.80;5.97;;;;;;;;;;6248015;23;20164;-91
2022/01/16 13:31:56;;;;;;;9.70;6.70;;;;;;;;;;6248156;23;20172;-90
2022/01/16 13:34:38;;;;;;;13.23;6.63;;;;;;;;;;6247728;23;20183;-91
2022/01/16 13:37:08;;;;;;;8.87;5.63;;;;;;;;;;6247838;23;20176;-90
2022/01/16 13:39:54;;;;;;;4.77;3.57;;;;;;;;;;6247346;23;20183;-90
2022/01/16 13:42:49;;;;;;;15.33;7.40;;;;;;;;;;6247722;23;20220;-90
2022/01/16 13:45:25;;;;;;;8.50;5.60;;;;;;;;;;6247352;23;20206;-90
2022/01/16 13:47:58;;;;;;;13.20;5.27;;;;;;;;;;6247763;23;20191;-90
2022/01/16 13:50:27;;;;;;;13.80;6.43;;;;;;;;;;6247142;23;20202;-89
2022/01/16 13:52:56;;;;;;;18.73;9.70;;;;;;;;;;6247976;23;20211;-90
2022/01/16 13:55:25;;;;;;;8.87;6.40;;;;;;;;;;6247240;23;20175;-91
2022/01/16 13:57:56;;;;;;;13.47;6.17;;;;;;;;;;6246931;23;20242;-90
2022/01/16 14:00:30;;;;;;;12.23;6.80;;;;;;;;;;6247475;23;20175;-89
2022/01/16 14:03:10;;;;;;;8.57;4.83;;;;;;;;;;6247575;22;20230;-90
2022/01/16 14:05:42;;;;;;;8.63;5.67;;;;;;;;;;6247775;23;20174;-90
2022/01/16 14:08:36;;;;;;;17.00;9.07;;;;;;;;;;6247535;23;20164;-90
2022/01/16 14:11:09;;;;;;;16.20;8.80;;;;;;;;;;6220172;23;20182;-90
2022/01/16 14:13:48;;;;;;;12.67;7.47;;;;;;;;;;6247256;23;20183;-90
2022/01/16 14:16:18;;;;;;;8.73;5.40;;;;;;;;;;6247187;23;20176;-90
2022/01/16 14:22:02;;;;;;;21.93;9.13;;;;;;;;;;6234991;23;20192;-90
2022/01/16 14:24:31;;;;;;;7.80;5.20;;;;;;;;;;6247514;23;20171;-90
2022/01/16 14:27:01;;;;;;;10.80;7.30;;;;;;;;;;6235157;23;20184;-90
2022/01/16 14:29:31;;;;;;;8.40;6.90;;;;;;;;;;6247489;23;20171;-90
2022/01/16 14:32:00;;;;;;;8.47;4.83;;;;;;;;;;6247170;23;20226;-90
2022/01/16 14:34:28;;;;;;;16.50;9.13;;;;;;;;;;6247536;23;20187;-90
2022/01/16 14:36:57;;;;;;;9.27;4.73;;;;;;;;;;6247207;23;20228;-90
2022/01/16 14:39:26;;;;;;;12.83;6.23;;;;;;;;;;6247118;23;20278;-90
2022/01/16 14:41:55;;;;;;;10.60;5.30;;;;;;;;;;6247241;23;20180;-90
2022/01/16 14:44:24;;;;;;;6.07;4.37;;;;;;;;;;6247076;23;20180;-91
2022/01/16 14:46:54;;;;;;;7.57;4.30;;;;;;;;;;6247220;23;20175;-90
2022/01/16 14:49:23;;;;;;;14.60;11.63;;;;;;;;;;6247240;23;20172;-90
2022/01/16 14:51:52;;;;;;;10.37;7.83;;;;;;;;;;6247007;23;20213;-90
2022/01/16 14:54:40;;;;;;;4.67;3.50;;;;;;;;;;6247109;23;20193;-90
2022/01/16 14:57:09;;;;;;;6.53;4.93;;;;;;;;;;6247460;23;20175;-90
2022/01/16 14:59:37;;;;;;;4.53;3.57;;;;;;;;;;6247148;23;20199;-90
2022/01/16 15:02:07;;;;;;;15.67;8.77;;;;;;;;;;6247316;23;20181;-90
2022/01/16 15:04:36;;;;;;;11.87;4.80;;;;;;;;;;6247052;22;20190;-90
2022/01/16 15:07:06;;;;;;;3.87;3.33;;;;;;;;;;6246712;22;20267;-90
2022/01/16 15:09:35;;;;;;;8.17;6.47;;;;;;;;;;6247086;23;20225;-90
2022/01/16 15:12:03;;;;;;;5.73;5.13;;;;;;;;;;6246807;23;20183;-90
2022/01/16 15:14:32;;;;;;;9.20;6.70;;;;;;;;;;6246567;23;20175;-90
2022/01/16 15:17:00;;;;;;;10.53;5.53;;;;;;;;;;6247103;23;20207;-90
2022/01/16 15:19:33;;;;;;;11.80;8.73;;;;;;;;;;6246543;23;20194;-90
2022/01/16 15:22:21;;;;;;;4.67;3.67;;;;;;;;;;6235000;23;20196;-90
2022/01/16 15:24:50;;;;;;;2.53;2.33;;;;;;;;;;6246890;23;20173;-90
2022/01/16 15:27:19;;;;;;;7.20;4.67;;;;;;;;;;6246749;23;20179;-90
2022/01/16 15:29:47;;;;;;;12.40;3.73;;;;;;;;;;6246839;23;20170;-90
2022/01/16 15:32:19;;;;;;;8.60;6.00;;;;;;;;;;6246780;23;20179;-90